sensor_id;sensor_type;location;lat;lon;timestamp;pressure;altitude;pressure_sealevel;temperature;humidity
5298;BME280;14738;42.668;23.250;2023-10-09T00:01:05;48382.34;;;-141.90;41.54
5298;BME280;14738;42.668;23.250;2023-10-09T00:03:46;48402.22;;;-141.90;42.06
5298;BME280;14738;42.668;23.250;2023-10-09T00:06:17;48364.50;;;-141.90;41.79
5298;BME280;14738;42.668;23.250;2023-10-09T00:08:42;48380.38;;;-141.90;41.88
5298;BME280;14738;42.668;23.250;2023-10-09T00:11:15;48390.31;;;-141.90;42.18
5298;BME280;14738;42.668;23.250;2023-10-09T00:13:42;48378.38;;;-141.90;42.12
5298;BME280;14738;42.668;23.250;2023-10-09T00:16:20;48380.38;;;-141.90;42.32
5298;BME280;14738;42.668;23.250;2023-10-09T00:19:01;48366.47;;;-141.90;42.23
5298;BME280;14738;42.668;23.250;2023-10-09T00:21:51;48384.34;;;-141.90;42.79
5298;BME280;14738;42.668;23.250;2023-10-09T00:24:20;48374.41;;;-141.90;42.52
5298;BME280;14738;42.668;23.250;2023-10-09T00:26:51;48386.34;;;-141.90;42.16
5298;BME280;14738;42.668;23.250;2023-10-09T00:29:21;48356.56;;;-141.90;42.71
5298;BME280;14738;42.668;23.250;2023-10-09T00:31:51;48368.47;;;-141.90;42.96
5298;BME280;14738;42.668;23.250;2023-10-09T00:34:20;48394.28;;;-141.90;43.18
5298;BME280;14738;42.668;23.250;2023-10-09T00:36:47;48370.44;;;-141.90;43.36
5298;BME280;14738;42.668;23.250;2023-10-09T00:39:19;48370.44;;;-141.90;42.89
5298;BME280;14738;42.668;23.250;2023-10-09T00:42:04;48330.75;;;-141.90;43.28
5298;BME280;14738;42.668;23.250;2023-10-09T00:44:32;48374.41;;;-141.90;43.64
5298;BME280;14738;42.668;23.250;2023-10-09T00:47:09;48356.56;;;-141.90;43.42
5298;BME280;14738;42.668;23.250;2023-10-09T00:49:47;48376.41;;;-141.90;43.57
5298;BME280;14738;42.668;23.250;2023-10-09T00:52:15;48370.44;;;-141.90;43.70
5298;BME280;14738;42.668;23.250;2023-10-09T00:54:50;48372.44;;;-141.90;43.28
5298;BME280;14738;42.668;23.250;2023-10-09T00:57:19;48366.47;;;-141.90;43.82
5298;BME280;14738;42.668;23.250;2023-10-09T00:59:51;48356.56;;;-141.90;43.80
5298;BME280;14738;42.668;23.250;2023-10-09T01:02:25;48364.50;;;-141.90;43.87
5298;BME280;14738;42.668;23.250;2023-10-09T01:05:03;48350.59;;;-141.90;44.00
5298;BME280;14738;42.668;23.250;2023-10-09T01:07:45;48350.59;;;-141.90;44.22
5298;BME280;14738;42.668;23.250;2023-10-09T01:10:11;48348.63;;;-141.90;44.58
5298;BME280;14738;42.668;23.250;2023-10-09T01:12:36;48362.50;;;-141.90;44.58
5298;BME280;14738;42.668;23.250;2023-10-09T01:15:08;48346.63;;;-141.90;44.89
5298;BME280;14738;42.668;23.250;2023-10-09T01:17:42;48360.53;;;-141.90;45.36
5298;BME280;14738;42.668;23.250;2023-10-09T01:20:11;48366.47;;;-141.90;45.37
5298;BME280;14738;42.668;23.250;2023-10-09T01:22:52;48366.47;;;-141.90;45.34
5298;BME280;14738;42.668;23.250;2023-10-09T01:25:17;48378.38;;;-141.90;45.32
5298;BME280;14738;42.668;23.250;2023-10-09T01:27:45;48350.59;;;-141.90;44.22
5298;BME280;14738;42.668;23.250;2023-10-09T01:30:11;48322.81;;;-141.90;44.38
5298;BME280;14738;42.668;23.250;2023-10-09T01:32:39;48376.41;;;-141.90;44.49
5298;BME280;14738;42.668;23.250;2023-10-09T01:35:06;48358.53;;;-141.90;44.17
5298;BME280;14738;42.668;23.250;2023-10-09T01:37:46;48380.38;;;-141.90;44.24
5298;BME280;14738;42.668;23.250;2023-10-09T01:40:14;48336.69;;;-141.90;43.29
5298;BME280;14738;42.668;23.250;2023-10-09T01:43:01;48354.56;;;-141.90;43.75
5298;BME280;14738;42.668;23.250;2023-10-09T01:45:29;48354.56;;;-141.90;43.49
5298;BME280;14738;42.668;23.250;2023-10-09T01:47:55;48344.63;;;-141.90;43.60
5298;BME280;14738;42.668;23.250;2023-10-09T01:50:21;48362.50;;;-141.90;43.08
5298;BME280;14738;42.668;23.250;2023-10-09T01:52:50;48320.81;;;-141.90;43.25
5298;BME280;14738;42.668;23.250;2023-10-09T01:55:16;48330.75;;;-141.90;43.09
5298;BME280;14738;42.668;23.250;2023-10-09T01:58:11;48342.66;;;-141.90;43.59
5298;BME280;14738;42.668;23.250;2023-10-09T02:00:45;48354.56;;;-141.90;43.84
5298;BME280;14738;42.668;23.250;2023-10-09T02:03:14;48350.59;;;-141.90;43.92
5298;BME280;14738;42.668;23.250;2023-10-09T02:05:42;48370.44;;;-141.90;44.30
5298;BME280;14738;42.668;23.250;2023-10-09T02:08:07;48318.84;;;-141.90;44.09
5298;BME280;14738;42.668;23.250;2023-10-09T02:10:38;48342.66;;;-141.90;43.98
5298;BME280;14738;42.668;23.250;2023-10-09T02:13:06;48350.59;;;-141.90;44.29
5298;BME280;14738;42.668;23.250;2023-10-09T02:15:33;48338.69;;;-141.90;44.30
5298;BME280;14738;42.668;23.250;2023-10-09T02:18:11;48342.66;;;-141.90;44.44
5298;BME280;14738;42.668;23.250;2023-10-09T02:20:51;48322.81;;;-141.90;44.00
5298;BME280;14738;42.668;23.250;2023-10-09T02:23:30;48318.84;;;-141.90;44.40
5298;BME280;14738;42.668;23.250;2023-10-09T02:26:17;48350.59;;;-141.90;44.29
5298;BME280;14738;42.668;23.250;2023-10-09T02:28:55;48310.91;;;-141.90;44.63
5298;BME280;14738;42.668;23.250;2023-10-09T02:31:38;48352.59;;;-141.90;44.57
5298;BME280;14738;42.668;23.250;2023-10-09T02:34:09;48350.59;;;-141.90;45.37
5298;BME280;14738;42.668;23.250;2023-10-09T02:36:36;48340.66;;;-141.90;44.77
5298;BME280;14738;42.668;23.250;2023-10-09T02:39:11;48330.75;;;-141.90;44.94
5298;BME280;14738;42.668;23.250;2023-10-09T02:41:52;48338.69;;;-141.90;45.28
5298;BME280;14738;42.668;23.250;2023-10-09T02:44:20;48350.59;;;-141.90;44.91
5298;BME280;14738;42.668;23.250;2023-10-09T02:46:50;48334.72;;;-141.90;44.99
5298;BME280;14738;42.668;23.250;2023-10-09T02:49:15;48344.63;;;-141.90;45.22
5298;BME280;14738;42.668;23.250;2023-10-09T02:51:41;48342.66;;;-141.90;45.41
5298;BME280;14738;42.668;23.250;2023-10-09T02:54:13;48354.56;;;-141.90;44.85
5298;BME280;14738;42.668;23.250;2023-10-09T02:56:52;48346.63;;;-141.90;44.94
5298;BME280;14738;42.668;23.250;2023-10-09T02:59:36;48356.56;;;-141.90;44.83
5298;BME280;14738;42.668;23.250;2023-10-09T03:02:10;48332.72;;;-141.90;45.34
5298;BME280;14738;42.668;23.250;2023-10-09T03:04:36;48348.63;;;-141.90;45.52
5298;BME280;14738;42.668;23.250;2023-10-09T03:07:04;48322.81;;;-141.90;45.75
5298;BME280;14738;42.668;23.250;2023-10-09T03:09:29;48334.72;;;-141.90;46.26
5298;BME280;14738;42.668;23.250;2023-10-09T03:11:57;48348.63;;;-141.90;46.75
5298;BME280;14738;42.668;23.250;2023-10-09T03:14:35;48378.38;;;-141.90;46.41
5298;BME280;14738;42.668;23.250;2023-10-09T03:17:03;48322.81;;;-141.90;46.50
5298;BME280;14738;42.668;23.250;2023-10-09T03:19:30;48352.59;;;-141.90;46.51
5298;BME280;14738;42.668;23.250;2023-10-09T03:21:56;48346.63;;;-141.90;46.62
5298;BME280;14738;42.668;23.250;2023-10-09T03:24:25;48332.72;;;-141.90;46.49
5298;BME280;14738;42.668;23.250;2023-10-09T03:26:52;48350.59;;;-141.90;46.93
5298;BME280;14738;42.668;23.250;2023-10-09T03:29:21;48330.75;;;-141.90;47.01
5298;BME280;14738;42.668;23.250;2023-10-09T03:31:47;48338.69;;;-141.90;46.47
5298;BME280;14738;42.668;23.250;2023-10-09T03:34:15;48346.63;;;-141.90;46.55
5298;BME280;14738;42.668;23.250;2023-10-09T03:36:42;48342.66;;;-141.90;47.22
5298;BME280;14738;42.668;23.250;2023-10-09T03:39:09;48346.63;;;-141.90;47.13
5298;BME280;14738;42.668;23.250;2023-10-09T03:41:53;48336.69;;;-141.90;46.51
5298;BME280;14738;42.668;23.250;2023-10-09T03:44:19;48350.59;;;-141.90;46.55
5298;BME280;14738;42.668;23.250;2023-10-09T03:46:45;48348.63;;;-141.90;47.41
5298;BME280;14738;42.668;23.250;2023-10-09T03:49:11;48354.56;;;-141.90;47.11
5298;BME280;14738;42.668;23.250;2023-10-09T03:51:38;48330.75;;;-141.90;47.32
5298;BME280;14738;42.668;23.250;2023-10-09T03:54:05;48354.56;;;-141.90;47.53
5298;BME280;14738;42.668;23.250;2023-10-09T03:56:33;48346.63;;;-141.90;47.31
5298;BME280;14738;42.668;23.250;2023-10-09T03:59:00;48348.63;;;-141.90;47.48
5298;BME280;14738;42.668;23.250;2023-10-09T04:01:26;48358.53;;;-141.90;46.89
5298;BME280;14738;42.668;23.250;2023-10-09T04:03:59;48340.66;;;-141.90;47.36
5298;BME280;14738;42.668;23.250;2023-10-09T04:06:25;48338.69;;;-141.90;46.87
5298;BME280;14738;42.668;23.250;2023-10-09T04:08:56;48358.53;;;-141.90;47.34
5298;BME280;14738;42.668;23.250;2023-10-09T04:11:23;48336.69;;;-141.90;47.39
5298;BME280;14738;42.668;23.250;2023-10-09T04:13:50;48362.50;;;-141.90;47.47
5298;BME280;14738;42.668;23.250;2023-10-09T04:16:18;48338.69;;;-141.90;47.55
5298;BME280;14738;42.668;23.250;2023-10-09T04:18:56;48330.75;;;-141.90;46.83
5298;BME280;14738;42.668;23.250;2023-10-09T04:21:25;48344.63;;;-141.90;46.81
5298;BME280;14738;42.668;23.250;2023-10-09T04:24:03;48380.38;;;-141.90;46.51
5298;BME280;14738;42.668;23.250;2023-10-09T04:26:43;48330.75;;;-141.90;46.17
5298;BME280;14738;42.668;23.250;2023-10-09T04:29:12;48340.66;;;-141.90;46.28
5298;BME280;14738;42.668;23.250;2023-10-09T04:31:55;48354.56;;;-141.90;46.42
5298;BME280;14738;42.668;23.250;2023-10-09T04:34:24;48342.66;;;-141.90;46.26
5298;BME280;14738;42.668;23.250;2023-10-09T04:36:53;48350.59;;;-141.90;45.95
5298;BME280;14738;42.668;23.250;2023-10-09T04:39:43;48340.66;;;-141.90;45.26
5298;BME280;14738;42.668;23.250;2023-10-09T04:42:15;48328.75;;;-141.90;45.61
5298;BME280;14738;42.668;23.250;2023-10-09T04:44:51;48338.69;;;-141.90;45.00
5298;BME280;14738;42.668;23.250;2023-10-09T04:47:30;48334.72;;;-141.90;44.90
5298;BME280;14738;42.668;23.250;2023-10-09T04:50:05;48362.50;;;-141.90;43.39
5298;BME280;14738;42.668;23.250;2023-10-09T04:53:00;48342.66;;;-141.90;43.62
5298;BME280;14738;42.668;23.250;2023-10-09T04:55:46;48340.66;;;-141.90;42.85
5298;BME280;14738;42.668;23.250;2023-10-09T04:58:25;48350.59;;;-141.90;42.36
5298;BME280;14738;42.668;23.250;2023-10-09T05:00:52;48340.66;;;-141.90;42.75
5298;BME280;14738;42.668;23.250;2023-10-09T05:03:24;48336.69;;;-141.90;42.11
5298;BME280;14738;42.668;23.250;2023-10-09T05:06:05;48334.72;;;-141.90;41.52
5298;BME280;14738;42.668;23.250;2023-10-09T05:08:47;48366.47;;;-141.90;41.07
5298;BME280;14738;42.668;23.250;2023-10-09T05:11:14;48346.63;;;-141.90;40.81
5298;BME280;14738;42.668;23.250;2023-10-09T05:13:58;48322.81;;;-141.90;40.87
5298;BME280;14738;42.668;23.250;2023-10-09T05:16:37;48354.56;;;-141.90;40.42
5298;BME280;14738;42.668;23.250;2023-10-09T05:19:03;48342.66;;;-141.90;39.68
5298;BME280;14738;42.668;23.250;2023-10-09T05:21:37;48356.56;;;-141.90;38.18
5298;BME280;14738;42.668;23.250;2023-10-09T05:24:10;48348.63;;;-141.90;37.60
5298;BME280;14738;42.668;23.250;2023-10-09T05:26:48;48338.69;;;-141.90;36.63
5298;BME280;14738;42.668;23.250;2023-10-09T05:29:24;48370.44;;;-141.90;36.01
5298;BME280;14738;42.668;23.250;2023-10-09T05:32:13;48332.72;;;-141.90;35.78
5298;BME280;14738;42.668;23.250;2023-10-09T05:34:39;48378.38;;;-141.90;33.30
5298;BME280;14738;42.668;23.250;2023-10-09T05:37:23;48384.34;;;-141.90;30.96
5298;BME280;14738;42.668;23.250;2023-10-09T05:40:01;48360.53;;;-141.90;29.61
5298;BME280;14738;42.668;23.250;2023-10-09T05:42:27;48394.28;;;-141.90;28.96
5298;BME280;14738;42.668;23.250;2023-10-09T05:45:03;48426.03;;;-141.90;28.25
5298;BME280;14738;42.668;23.250;2023-10-09T05:47:50;48422.06;;;-141.90;28.23
5298;BME280;14738;42.668;23.250;2023-10-09T05:50:22;48418.09;;;-141.90;28.96
5298;BME280;14738;42.668;23.250;2023-10-09T05:52:49;48418.09;;;-141.90;28.08
5298;BME280;14738;42.668;23.250;2023-10-09T05:55:18;48433.97;;;-141.90;27.10
5298;BME280;14738;42.668;23.250;2023-10-09T05:57:52;48428.03;;;-141.90;27.29
5298;BME280;14738;42.668;23.250;2023-10-09T06:00:24;48451.84;;;-141.90;26.19
5298;BME280;14738;42.668;23.250;2023-10-09T06:03:09;48422.06;;;-141.90;26.52
5298;BME280;14738;42.668;23.250;2023-10-09T06:05:51;48414.13;;;-141.90;26.40
5298;BME280;14738;42.668;23.250;2023-10-09T06:08:18;48404.19;;;-141.90;27.55
5298;BME280;14738;42.668;23.250;2023-10-09T06:10:50;48430.00;;;-141.90;27.51
5298;BME280;14738;42.668;23.250;2023-10-09T06:13:31;48422.06;;;-141.90;26.97
5298;BME280;14738;42.668;23.250;2023-10-09T06:16:04;48426.03;;;-141.90;26.08
5298;BME280;14738;42.668;23.250;2023-10-09T06:18:55;48449.84;;;-141.90;26.51
5298;BME280;14738;42.668;23.250;2023-10-09T06:21:36;48422.06;;;-141.90;26.16
5298;BME280;14738;42.668;23.250;2023-10-09T06:24:07;48416.09;;;-141.90;26.29
5298;BME280;14738;42.668;23.250;2023-10-09T06:26:43;48437.94;;;-141.90;26.10
5298;BME280;14738;42.668;23.250;2023-10-09T06:29:28;48414.13;;;-141.90;26.25
5298;BME280;14738;42.668;23.250;2023-10-09T06:32:07;48416.09;;;-141.90;26.64
5298;BME280;14738;42.668;23.250;2023-10-09T06:34:57;48426.03;;;-141.90;26.45
5298;BME280;14738;42.668;23.250;2023-10-09T06:37:46;48426.03;;;-141.90;26.51
5298;BME280;14738;42.668;23.250;2023-10-09T06:40:31;48398.25;;;-141.90;26.89
5298;BME280;14738;42.668;23.250;2023-10-09T06:43:15;48392.28;;;-141.90;26.84
5298;BME280;14738;42.668;23.250;2023-10-09T06:45:41;48374.41;;;-141.90;27.32
5298;BME280;14738;42.668;23.250;2023-10-09T06:48:12;48386.34;;;-141.90;27.22
5298;BME280;14738;42.668;23.250;2023-10-09T06:51:04;48410.16;;;-141.90;27.52
5298;BME280;14738;42.668;23.250;2023-10-09T06:53:38;48358.53;;;-141.90;27.83
5298;BME280;14738;42.668;23.250;2023-10-09T06:56:23;48392.28;;;-141.90;28.05
5298;BME280;14738;42.668;23.250;2023-10-09T06:59:11;48410.16;;;-141.90;27.82
5298;BME280;14738;42.668;23.250;2023-10-09T07:01:49;48406.19;;;-141.90;27.03
5298;BME280;14738;42.668;23.250;2023-10-09T07:04:33;48406.19;;;-141.90;27.53
5298;BME280;14738;42.668;23.250;2023-10-09T07:07:01;48398.25;;;-141.90;27.22
5298;BME280;14738;42.668;23.250;2023-10-09T07:09:27;48374.41;;;-141.90;27.22
5298;BME280;14738;42.668;23.250;2023-10-09T07:12:08;48342.66;;;-141.90;27.67
5298;BME280;14738;42.668;23.250;2023-10-09T07:14:54;48378.38;;;-141.90;27.65
5298;BME280;14738;42.668;23.250;2023-10-09T07:17:39;48370.44;;;-141.90;27.57
5298;BME280;14738;42.668;23.250;2023-10-09T07:20:05;48378.38;;;-141.90;27.04
5298;BME280;14738;42.668;23.250;2023-10-09T07:22:56;48376.41;;;-141.90;27.25
5298;BME280;14738;42.668;23.250;2023-10-09T07:25:38;48364.50;;;-141.90;26.39
5298;BME280;14738;42.668;23.250;2023-10-09T07:28:09;48346.63;;;-141.90;27.21
5298;BME280;14738;42.668;23.250;2023-10-09T07:30:54;48364.50;;;-141.90;27.47
5298;BME280;14738;42.668;23.250;2023-10-09T07:33:23;48342.66;;;-141.90;27.29
5298;BME280;14738;42.668;23.250;2023-10-09T07:36:08;48330.75;;;-141.90;28.02
5298;BME280;14738;42.668;23.250;2023-10-09T07:38:37;48358.53;;;-141.90;27.66
5298;BME280;14738;42.668;23.250;2023-10-09T07:41:03;48342.66;;;-141.90;27.80
5298;BME280;14738;42.668;23.250;2023-10-09T07:43:40;48388.31;;;-141.90;28.73
5298;BME280;14738;42.668;23.250;2023-10-09T07:46:13;48348.63;;;-141.90;27.47
5298;BME280;14738;42.668;23.250;2023-10-09T07:49:05;48360.53;;;-141.90;27.01
5298;BME280;14738;42.668;23.250;2023-10-09T07:51:46;48370.44;;;-141.90;27.36
5298;BME280;14738;42.668;23.250;2023-10-09T07:54:13;48358.53;;;-141.90;26.84
5298;BME280;14738;42.668;23.250;2023-10-09T07:56:58;48356.56;;;-141.90;26.73
5298;BME280;14738;42.668;23.250;2023-10-09T07:59:34;48338.69;;;-141.90;26.56
5298;BME280;14738;42.668;23.250;2023-10-09T08:02:07;48350.59;;;-141.90;26.36
5298;BME280;14738;42.668;23.250;2023-10-09T08:04:39;48368.47;;;-141.90;26.74
5298;BME280;14738;42.668;23.250;2023-10-09T08:07:13;48346.63;;;-141.90;26.83
5298;BME280;14738;42.668;23.250;2023-10-09T08:09:53;48384.34;;;-141.90;26.98
5298;BME280;14738;42.668;23.250;2023-10-09T08:12:37;48394.28;;;-141.90;27.24
5298;BME280;14738;42.668;23.250;2023-10-09T08:15:15;48358.53;;;-141.90;26.71
5298;BME280;14738;42.668;23.250;2023-10-09T08:17:48;48372.44;;;-141.90;27.58
5298;BME280;14738;42.668;23.250;2023-10-09T08:20:21;48402.22;;;-141.90;26.59
5298;BME280;14738;42.668;23.250;2023-10-09T08:22:51;48374.41;;;-141.90;26.44
5298;BME280;14738;42.668;23.250;2023-10-09T08:25:18;48350.59;;;-141.90;25.18
5298;BME280;14738;42.668;23.250;2023-10-09T08:28:02;48380.38;;;-141.90;24.93
5298;BME280;14738;42.668;23.250;2023-10-09T08:30:40;48386.34;;;-141.90;25.96
5298;BME280;14738;42.668;23.250;2023-10-09T08:33:14;48378.38;;;-141.90;25.43
5298;BME280;14738;42.668;23.250;2023-10-09T08:35:54;48354.56;;;-141.90;25.72
5298;BME280;14738;42.668;23.250;2023-10-09T08:38:32;48354.56;;;-141.90;26.26
5298;BME280;14738;42.668;23.250;2023-10-09T08:41:11;48338.69;;;-141.90;26.68
5298;BME280;14738;42.668;23.250;2023-10-09T08:43:50;48358.53;;;-141.90;26.30
5298;BME280;14738;42.668;23.250;2023-10-09T08:46:19;48374.41;;;-141.90;25.88
5298;BME280;14738;42.668;23.250;2023-10-09T08:48:45;48378.38;;;-141.90;25.22
5298;BME280;14738;42.668;23.250;2023-10-09T08:51:14;48350.59;;;-141.90;24.76
5298;BME280;14738;42.668;23.250;2023-10-09T08:53:41;48368.47;;;-141.90;24.60
5298;BME280;14738;42.668;23.250;2023-10-09T08:56:12;48366.47;;;-141.90;25.17
5298;BME280;14738;42.668;23.250;2023-10-09T08:58:40;48362.50;;;-141.90;25.45
5298;BME280;14738;42.668;23.250;2023-10-09T09:01:06;48330.75;;;-141.90;25.18
5298;BME280;14738;42.668;23.250;2023-10-09T09:03:39;48368.47;;;-141.90;25.65
5298;BME280;14738;42.668;23.250;2023-10-09T09:06:04;48390.31;;;-141.90;25.39
5298;BME280;14738;42.668;23.250;2023-10-09T09:08:33;48370.44;;;-141.90;25.59
5298;BME280;14738;42.668;23.250;2023-10-09T09:11:02;48354.56;;;-141.90;25.19
5298;BME280;14738;42.668;23.250;2023-10-09T09:13:42;48368.47;;;-141.90;24.74
5298;BME280;14738;42.668;23.250;2023-10-09T09:16:24;48378.38;;;-141.90;24.69
5298;BME280;14738;42.668;23.250;2023-10-09T09:18:57;48378.38;;;-141.90;25.07
5298;BME280;14738;42.668;23.250;2023-10-09T09:21:31;48402.22;;;-141.90;25.75
5298;BME280;14738;42.668;23.250;2023-10-09T09:24:02;48374.41;;;-141.90;25.02
5298;BME280;14738;42.668;23.250;2023-10-09T09:26:41;48386.34;;;-141.90;25.13
5298;BME280;14738;42.668;23.250;2023-10-09T09:29:13;48390.31;;;-141.90;24.48
5298;BME280;14738;42.668;23.250;2023-10-09T09:31:55;48366.47;;;-141.90;24.80
5298;BME280;14738;42.668;23.250;2023-10-09T09:34:23;48368.47;;;-141.90;24.37
5298;BME280;14738;42.668;23.250;2023-10-09T09:36:55;48366.47;;;-141.90;24.21
5298;BME280;14738;42.668;23.250;2023-10-09T09:39:30;48378.38;;;-141.90;24.28
5298;BME280;14738;42.668;23.250;2023-10-09T09:41:59;48366.47;;;-141.90;24.06
5298;BME280;14738;42.668;23.250;2023-10-09T09:44:36;48390.31;;;-141.90;24.62
5298;BME280;14738;42.668;23.250;2023-10-09T09:47:14;48384.34;;;-141.90;23.98
5298;BME280;14738;42.668;23.250;2023-10-09T09:49:55;48394.28;;;-141.90;24.04
5298;BME280;14738;42.668;23.250;2023-10-09T09:52:36;48352.59;;;-141.90;24.37
5298;BME280;14738;42.668;23.250;2023-10-09T09:55:10;48350.59;;;-141.90;23.84
5298;BME280;14738;42.668;23.250;2023-10-09T09:57:48;48358.53;;;-141.90;23.88
5298;BME280;14738;42.668;23.250;2023-10-09T10:00:19;48368.47;;;-141.90;24.14
5298;BME280;14738;42.668;23.250;2023-10-09T10:03:11;48374.41;;;-141.90;23.77
5298;BME280;14738;42.668;23.250;2023-10-09T10:05:38;48390.31;;;-141.90;23.50
5298;BME280;14738;42.668;23.250;2023-10-09T10:08:07;48362.50;;;-141.90;23.47
5298;BME280;14738;42.668;23.250;2023-10-09T10:10:40;48392.28;;;-141.90;23.78
5298;BME280;14738;42.668;23.250;2023-10-09T10:13:18;48368.47;;;-141.90;23.91
5298;BME280;14738;42.668;23.250;2023-10-09T10:16:04;48398.25;;;-141.90;23.95
5298;BME280;14738;42.668;23.250;2023-10-09T10:18:59;48410.16;;;-141.90;23.00
5298;BME280;14738;42.668;23.250;2023-10-09T10:21:37;48374.41;;;-141.90;22.86
5298;BME280;14738;42.668;23.250;2023-10-09T10:29:44;48378.38;;;-141.90;22.72
5298;BME280;14738;42.668;23.250;2023-10-09T10:32:11;48374.41;;;-141.90;22.68
5298;BME280;14738;42.668;23.250;2023-10-09T10:37:15;48384.34;;;-141.90;22.94
5298;BME280;14738;42.668;23.250;2023-10-09T10:39:50;48394.28;;;-141.90;23.39
5298;BME280;14738;42.668;23.250;2023-10-09T10:42:16;48370.44;;;-141.90;23.69
5298;BME280;14738;42.668;23.250;2023-10-09T10:45:03;48390.31;;;-141.90;23.67
5298;BME280;14738;42.668;23.250;2023-10-09T10:47:49;48392.28;;;-141.90;23.13
5298;BME280;14738;42.668;23.250;2023-10-09T10:50:17;48390.31;;;-141.90;23.02
5298;BME280;14738;42.668;23.250;2023-10-09T10:53:11;48374.41;;;-141.90;23.40
5298;BME280;14738;42.668;23.250;2023-10-09T10:55:39;48404.19;;;-141.90;23.42
5298;BME280;14738;42.668;23.250;2023-10-09T10:58:30;48410.16;;;-141.90;23.26
5298;BME280;14738;42.668;23.250;2023-10-09T11:01:02;48400.22;;;-141.90;22.99
5298;BME280;14738;42.668;23.250;2023-10-09T11:03:40;48366.47;;;-141.90;23.10
5298;BME280;14738;42.668;23.250;2023-10-09T11:06:28;48392.28;;;-141.90;23.13
5298;BME280;14738;42.668;23.250;2023-10-09T11:09:07;48384.34;;;-141.90;23.02
5298;BME280;14738;42.668;23.250;2023-10-09T11:11:55;48400.22;;;-141.90;22.44
5298;BME280;14738;42.668;23.250;2023-10-09T11:14:47;48406.19;;;-141.90;22.16
5298;BME280;14738;42.668;23.250;2023-10-09T11:17:35;48406.19;;;-141.90;22.62
5298;BME280;14738;42.668;23.250;2023-10-09T11:20:04;48414.13;;;-141.90;22.64
5298;BME280;14738;42.668;23.250;2023-10-09T11:22:57;48414.13;;;-141.90;22.05
5298;BME280;14738;42.668;23.250;2023-10-09T11:25:39;48394.28;;;-141.90;22.34
5298;BME280;14738;42.668;23.250;2023-10-09T11:28:18;48424.06;;;-141.90;22.33
5298;BME280;14738;42.668;23.250;2023-10-09T11:31:15;48422.06;;;-141.90;22.42
5298;BME280;14738;42.668;23.250;2023-10-09T11:33:45;48430.00;;;-141.90;22.39
5298;BME280;14738;42.668;23.250;2023-10-09T11:36:11;48432.00;;;-141.90;22.06
5298;BME280;14738;42.668;23.250;2023-10-09T11:38:37;48406.19;;;-141.90;21.81
5298;BME280;14738;42.668;23.250;2023-10-09T11:41:16;48418.09;;;-141.90;21.53
5298;BME280;14738;42.668;23.250;2023-10-09T11:43:49;48400.22;;;-141.90;21.47
5298;BME280;14738;42.668;23.250;2023-10-09T11:46:21;48414.13;;;-141.90;21.50
5298;BME280;14738;42.668;23.250;2023-10-09T11:49:22;48428.03;;;-141.90;21.45
5298;BME280;14738;42.668;23.250;2023-10-09T11:51:47;48414.13;;;-141.90;21.31
5298;BME280;14738;42.668;23.250;2023-10-09T11:54:32;48414.13;;;-141.90;21.06
5298;BME280;14738;42.668;23.250;2023-10-09T11:56:58;48420.09;;;-141.90;21.05
5298;BME280;14738;42.668;23.250;2023-10-09T11:59:26;48420.09;;;-141.90;21.36
5298;BME280;14738;42.668;23.250;2023-10-09T12:01:52;48408.16;;;-141.90;21.04
5298;BME280;14738;42.668;23.250;2023-10-09T12:04:18;48418.09;;;-141.90;20.94
5298;BME280;14738;42.668;23.250;2023-10-09T12:06:44;48426.03;;;-141.90;20.67
5298;BME280;14738;42.668;23.250;2023-10-09T12:09:11;48433.97;;;-141.90;19.57
5298;BME280;14738;42.668;23.250;2023-10-09T12:11:49;48441.91;;;-141.90;19.79
5298;BME280;14738;42.668;23.250;2023-10-09T12:14:18;48424.06;;;-141.90;19.25
5298;BME280;14738;42.668;23.250;2023-10-09T12:16:49;48437.94;;;-141.90;18.67
5298;BME280;14738;42.668;23.250;2023-10-09T12:19:15;48441.91;;;-141.90;18.97
5298;BME280;14738;42.668;23.250;2023-10-09T12:21:41;48447.88;;;-141.90;18.84
5298;BME280;14738;42.668;23.250;2023-10-09T12:24:08;48418.09;;;-141.90;18.02
5298;BME280;14738;42.668;23.250;2023-10-09T12:26:37;48414.13;;;-141.90;18.60
5298;BME280;14738;42.668;23.250;2023-10-09T12:29:04;48404.19;;;-141.90;17.61
5298;BME280;14738;42.668;23.250;2023-10-09T12:31:36;48414.13;;;-141.90;18.15
5298;BME280;14738;42.668;23.250;2023-10-09T12:34:02;48435.97;;;-141.90;18.06
5298;BME280;14738;42.668;23.250;2023-10-09T12:36:28;48430.00;;;-141.90;17.84
5298;BME280;14738;42.668;23.250;2023-10-09T12:38:53;48418.09;;;-141.90;18.25
5298;BME280;14738;42.668;23.250;2023-10-09T12:41:23;48443.91;;;-141.90;18.09
5298;BME280;14738;42.668;23.250;2023-10-09T12:43:54;48457.81;;;-141.90;17.80
5298;BME280;14738;42.668;23.250;2023-10-09T12:46:20;48426.03;;;-141.90;17.28
5298;BME280;14738;42.668;23.250;2023-10-09T12:48:51;48455.81;;;-141.90;17.45
5298;BME280;14738;42.668;23.250;2023-10-09T12:51:20;48420.09;;;-141.90;16.91
5298;BME280;14738;42.668;23.250;2023-10-09T12:53:46;48422.06;;;-141.90;17.10
5298;BME280;14738;42.668;23.250;2023-10-09T12:56:14;48433.97;;;-141.90;17.18
5298;BME280;14738;42.668;23.250;2023-10-09T12:58:41;48445.88;;;-141.90;16.98
5298;BME280;14738;42.668;23.250;2023-10-09T13:01:17;48453.81;;;-141.90;16.85
5298;BME280;14738;42.668;23.250;2023-10-09T13:03:44;48455.81;;;-141.90;16.95
5298;BME280;14738;42.668;23.250;2023-10-09T13:06:14;48416.09;;;-141.90;16.84
5298;BME280;14738;42.668;23.250;2023-10-09T13:08:40;48406.19;;;-141.90;16.44
5298;BME280;14738;42.668;23.250;2023-10-09T13:11:09;48418.09;;;-141.90;16.56
5298;BME280;14738;42.668;23.250;2023-10-09T13:13:42;48418.09;;;-141.90;16.40
5298;BME280;14738;42.668;23.250;2023-10-09T13:18:49;48422.06;;;-141.90;16.01
5298;BME280;14738;42.668;23.250;2023-10-09T13:21:25;48447.88;;;-141.90;16.66
5298;BME280;14738;42.668;23.250;2023-10-09T13:23:52;48422.06;;;-141.90;17.05
5298;BME280;14738;42.668;23.250;2023-10-09T13:26:21;48400.22;;;-141.90;16.85